createdAt,value
2023-04-16T00:01:27.810Z,8.49
2023-04-16T00:03:55.146Z,8.47
2023-04-16T00:06:22.869Z,8.47
2023-04-16T00:08:50.375Z,8.51
2023-04-16T00:11:17.438Z,8.53
2023-04-16T00:13:44.016Z,8.53
2023-04-16T00:16:10.768Z,8.51
2023-04-16T00:18:37.403Z,8.50
2023-04-16T00:21:04.131Z,8.50
2023-04-16T00:23:31.080Z,8.50
2023-04-16T00:25:59.979Z,8.50
2023-04-16T00:28:27.710Z,8.53
2023-04-16T00:30:54.793Z,8.54
2023-04-16T00:33:21.899Z,8.54
2023-04-16T00:35:48.911Z,8.55
2023-04-16T00:38:16.040Z,8.56
2023-04-16T00:40:42.683Z,8.58
2023-04-16T00:43:09.406Z,8.59
2023-04-16T00:45:36.656Z,8.60
2023-04-16T00:48:04.238Z,8.58
2023-04-16T00:50:31.059Z,8.57
2023-04-16T00:52:58.201Z,8.56
2023-04-16T00:55:24.959Z,8.56
2023-04-16T00:57:51.597Z,8.56
2023-04-16T01:00:18.196Z,8.58
2023-04-16T01:02:44.971Z,8.58
2023-04-16T01:05:11.717Z,8.56
2023-04-16T01:07:38.327Z,8.54
2023-04-16T01:10:05.201Z,8.55
2023-04-16T01:12:32.578Z,8.54
2023-04-16T01:14:59.303Z,8.55
2023-04-16T01:17:25.894Z,8.55
2023-04-16T01:19:52.495Z,8.55
2023-04-16T01:22:19.068Z,8.55
2023-04-16T01:24:45.820Z,8.57
2023-04-16T01:27:12.486Z,8.56
2023-04-16T01:29:39.107Z,8.55
2023-04-16T01:32:05.805Z,8.56
2023-04-16T01:34:32.399Z,8.54
2023-04-16T01:36:59.036Z,8.51
2023-04-16T01:39:25.588Z,8.50
2023-04-16T01:41:52.245Z,8.50
2023-04-16T01:44:18.821Z,8.51
2023-04-16T01:46:45.597Z,8.52
2023-04-16T01:49:12.321Z,8.53
2023-04-16T01:51:39.042Z,8.54
2023-04-16T01:54:05.777Z,8.53
2023-04-16T01:56:32.405Z,8.50
2023-04-16T01:58:58.994Z,8.49
2023-04-16T02:01:25.782Z,8.50
2023-04-16T02:03:53.377Z,8.49
2023-04-16T02:06:20.209Z,8.53
2023-04-16T02:08:46.892Z,8.51
2023-04-16T02:11:13.548Z,8.53
2023-04-16T02:13:40.174Z,8.54
2023-04-16T02:16:06.941Z,8.52
2023-04-16T02:18:33.549Z,8.51
2023-04-16T02:21:00.526Z,8.52
2023-04-16T02:23:27.170Z,8.53
2023-04-16T02:25:54.047Z,8.54
2023-04-16T02:28:20.686Z,8.50
2023-04-16T02:30:47.353Z,8.48
2023-04-16T02:33:14.026Z,8.46
2023-04-16T02:35:41.160Z,8.42
2023-04-16T02:38:08.830Z,8.42
2023-04-16T02:40:35.635Z,8.41
2023-04-16T02:43:02.416Z,8.43
2023-04-16T02:45:31.433Z,8.43
2023-04-16T02:47:58.223Z,8.39
2023-04-16T02:50:24.835Z,8.39
2023-04-16T02:52:51.702Z,8.39
2023-04-16T02:55:18.360Z,8.38
2023-04-16T02:57:44.989Z,8.40
2023-04-16T03:00:12.077Z,8.39
2023-04-16T03:02:38.841Z,8.38
2023-04-16T03:05:06.019Z,8.38
2023-04-16T03:07:32.714Z,8.37
2023-04-16T03:09:59.330Z,8.35
2023-04-16T03:12:26.083Z,8.38
2023-04-16T03:14:52.814Z,8.39
2023-04-16T03:17:19.533Z,8.39
2023-04-16T03:19:46.344Z,8.41
2023-04-16T03:22:13.052Z,8.42
2023-04-16T03:24:39.715Z,8.38
2023-04-16T03:27:06.350Z,8.38
2023-04-16T03:29:33.141Z,8.36
2023-04-16T03:31:59.923Z,8.34
2023-04-16T03:34:26.991Z,8.36
2023-04-16T03:36:53.562Z,8.34
2023-04-16T03:39:20.663Z,8.32
2023-04-16T03:41:47.377Z,8.28
2023-04-16T03:44:14.045Z,8.28
2023-04-16T03:46:40.720Z,8.28
2023-04-16T03:49:07.779Z,8.25
2023-04-16T03:51:34.800Z,8.21
2023-04-16T03:54:01.516Z,8.22
2023-04-16T03:56:28.175Z,8.21
2023-04-16T03:58:54.828Z,8.21
2023-04-16T04:01:21.470Z,8.20
2023-04-16T04:03:48.450Z,8.20
2023-04-16T04:06:15.244Z,8.20
2023-04-16T04:08:41.886Z,8.23
2023-04-16T04:11:08.492Z,8.23
2023-04-16T04:13:35.179Z,8.22
2023-04-16T04:16:01.824Z,8.24
2023-04-16T04:18:28.556Z,8.21
2023-04-16T04:20:55.374Z,8.23
2023-04-16T04:23:22.046Z,8.21
2023-04-16T04:25:48.770Z,8.21
2023-04-16T04:28:15.713Z,8.19
2023-04-16T04:30:42.313Z,8.18
2023-04-16T04:33:08.949Z,8.17
2023-04-16T04:35:35.698Z,8.15
2023-04-16T04:38:03.359Z,8.15
2023-04-16T04:40:30.083Z,8.14
2023-04-16T04:42:56.714Z,8.15
2023-04-16T04:45:26.880Z,8.16
2023-04-16T04:47:54.028Z,8.14
2023-04-16T04:50:21.753Z,8.15
2023-04-16T04:52:48.394Z,8.08
2023-04-16T04:55:16.105Z,8.08
2023-04-16T04:57:42.968Z,8.08
2023-04-16T05:00:10.133Z,8.10
2023-04-16T05:02:37.018Z,8.06
2023-04-16T05:05:04.749Z,8.05
2023-04-16T05:07:31.778Z,8.02
2023-04-16T05:09:58.496Z,8.02
2023-04-16T05:12:25.216Z,8.03
2023-04-16T05:14:52.085Z,8.01
2023-04-16T05:17:18.813Z,8.03
2023-04-16T05:19:45.653Z,7.93
2023-04-16T05:22:12.620Z,7.95
2023-04-16T05:24:39.334Z,7.95
2023-04-16T05:27:06.600Z,7.93
2023-04-16T05:29:33.254Z,7.95
2023-04-16T05:31:59.968Z,7.96
2023-04-16T05:34:26.725Z,7.92
2023-04-16T05:36:53.390Z,7.95
2023-04-16T05:39:20.323Z,7.96
2023-04-16T05:41:47.105Z,7.96
2023-04-16T05:44:15.314Z,7.96
2023-04-16T05:46:42.093Z,7.98
2023-04-16T05:49:09.086Z,7.98
2023-04-16T05:51:36.225Z,7.98
2023-04-16T05:54:02.999Z,7.98
2023-04-16T05:56:29.645Z,7.98
2023-04-16T05:58:56.309Z,8.01
2023-04-16T06:01:23.016Z,8.02
2023-04-16T06:03:49.788Z,8.02
2023-04-16T06:06:16.499Z,8.04
2023-04-16T06:08:43.247Z,8.03
2023-04-16T06:11:10.061Z,8.04
2023-04-16T06:13:37.447Z,8.03
2023-04-16T06:16:04.246Z,8.04
2023-04-16T06:18:31.012Z,8.06
2023-04-16T06:20:59.365Z,8.08
2023-04-16T06:23:26.185Z,8.07
2023-04-16T06:25:52.885Z,8.06
2023-04-16T06:28:19.615Z,8.09
2023-04-16T06:30:47.221Z,8.06
2023-04-16T06:33:13.982Z,8.09
2023-04-16T06:35:40.960Z,8.10
2023-04-16T06:38:07.608Z,8.12
2023-04-16T06:40:34.472Z,8.15
2023-04-16T06:43:01.190Z,8.14
2023-04-16T06:45:27.903Z,8.13
2023-04-16T06:47:54.681Z,8.13
2023-04-16T06:50:22.355Z,8.13
2023-04-16T06:52:49.028Z,8.18
2023-04-16T06:55:15.747Z,8.20
2023-04-16T06:57:42.415Z,8.21
2023-04-16T07:00:09.591Z,8.23
2023-04-16T07:02:36.302Z,8.26
2023-04-16T07:05:03.326Z,8.28
2023-04-16T07:07:29.976Z,8.25
2023-04-16T07:09:56.602Z,8.27
2023-04-16T07:12:23.257Z,8.27
2023-04-16T07:14:50.013Z,8.28
2023-04-16T07:17:16.676Z,8.27
2023-04-16T07:19:43.320Z,8.23
2023-04-16T07:22:10.066Z,8.21
2023-04-16T07:24:36.729Z,8.21
2023-04-16T07:27:03.419Z,8.24
2023-04-16T07:29:30.078Z,8.21
2023-04-16T07:31:57.690Z,8.23
2023-04-16T07:34:24.433Z,8.30
2023-04-16T07:36:51.114Z,8.28
2023-04-16T07:39:17.746Z,8.30
2023-04-16T07:41:44.388Z,8.32
2023-04-16T07:44:11.035Z,8.35
2023-04-16T07:46:46.277Z,8.31
2023-04-16T07:49:14.014Z,8.28
2023-04-16T07:51:40.635Z,8.31
2023-04-16T07:54:07.282Z,8.29
2023-04-16T07:56:33.910Z,8.27
2023-04-16T07:59:07.848Z,8.27
2023-04-16T08:01:45.631Z,8.30
2023-04-16T08:04:12.612Z,8.33
2023-04-16T08:06:39.274Z,8.37
2023-04-16T08:09:06.172Z,8.35
2023-04-16T08:11:33.186Z,8.37
2023-04-16T08:14:00.930Z,8.37
2023-04-16T08:16:27.563Z,8.41
2023-04-16T08:18:54.182Z,8.43
2023-04-16T08:21:20.808Z,8.40
2023-04-16T08:23:47.441Z,8.41
2023-04-16T08:26:14.293Z,8.44
2023-04-16T08:28:40.890Z,8.43
2023-04-16T08:31:07.637Z,8.42
2023-04-16T08:33:34.249Z,8.43
2023-04-16T08:36:00.958Z,8.42
2023-04-16T08:38:27.542Z,8.43
2023-04-16T08:40:56.849Z,8.44
2023-04-16T08:43:25.081Z,8.42
2023-04-16T08:45:53.724Z,8.44
2023-04-16T08:48:22.156Z,8.44
2023-04-16T08:50:52.933Z,8.45
2023-04-16T08:53:39.428Z,8.38
2023-04-16T08:56:09.902Z,8.31
2023-04-16T08:58:38.337Z,8.33
2023-04-16T09:01:06.258Z,8.33
2023-04-16T09:03:35.599Z,8.33
2023-04-16T09:06:04.626Z,8.33
2023-04-16T09:08:32.341Z,8.26
2023-04-16T09:10:59.721Z,8.27
2023-04-16T09:13:27.018Z,8.31
2023-04-16T09:15:54.747Z,8.34
2023-04-16T09:18:21.554Z,8.32
2023-04-16T09:20:50.033Z,8.26
2023-04-16T09:23:17.008Z,8.22
2023-04-16T09:25:43.914Z,8.23
2023-04-16T09:28:11.021Z,8.25
2023-04-16T09:30:37.943Z,8.24
2023-04-16T09:33:17.030Z,8.16
2023-04-16T09:35:48.305Z,8.15
2023-04-16T09:38:15.551Z,8.12
2023-04-16T09:40:42.574Z,8.15
2023-04-16T09:43:17.005Z,8.14
2023-04-16T09:45:54.453Z,8.05
2023-04-16T09:48:31.239Z,8.05
2023-04-16T09:50:58.938Z,8.08
2023-04-16T09:53:30.285Z,8.05
2023-04-16T09:56:01.352Z,8.03
2023-04-16T09:58:29.065Z,8.05
2023-04-16T10:01:03.157Z,8.06
2023-04-16T10:03:34.574Z,8.09
2023-04-16T10:06:21.221Z,8.04
2023-04-16T10:08:53.032Z,8.06
2023-04-16T10:11:20.964Z,7.99
2023-04-16T10:13:48.354Z,8.01
2023-04-16T10:16:15.185Z,8.04
2023-04-16T10:18:43.832Z,8.02
2023-04-16T10:21:15.410Z,8.00
2023-04-16T10:23:43.196Z,8.02
2023-04-16T10:26:09.939Z,8.05
2023-04-16T10:28:37.149Z,7.97
2023-04-16T10:31:07.485Z,7.91
2023-04-16T10:33:37.156Z,7.87
2023-04-16T10:36:14.439Z,7.94
2023-04-16T10:38:50.985Z,7.96
2023-04-16T10:41:19.642Z,8.01
2023-04-16T10:43:48.182Z,8.00
2023-04-16T10:46:22.524Z,7.99
2023-04-16T10:48:50.897Z,7.94
2023-04-16T10:51:34.442Z,7.97
2023-04-16T10:54:20.280Z,7.89
2023-04-16T10:56:47.799Z,7.97
2023-04-16T10:59:18.776Z,8.08
2023-04-16T11:01:51.230Z,8.16
2023-04-16T11:04:21.186Z,8.21
2023-04-16T11:07:14.117Z,8.22
2023-04-16T11:10:00.056Z,8.22
2023-04-16T11:12:30.073Z,8.19
2023-04-16T11:15:04.481Z,8.23
2023-04-16T11:17:37.093Z,8.27
2023-04-16T11:20:19.324Z,8.25
2023-04-16T11:23:00.862Z,8.17
2023-04-16T11:25:30.297Z,8.17
2023-04-16T11:28:00.488Z,8.18
2023-04-16T11:30:33.317Z,8.10
2023-04-16T11:33:06.086Z,8.31
2023-04-16T11:35:32.867Z,8.43
2023-04-16T11:37:59.633Z,8.54
2023-04-16T11:40:31.227Z,8.58
2023-04-16T11:43:03.060Z,8.60
2023-04-16T11:45:29.855Z,8.50
2023-04-16T11:47:58.062Z,8.64
2023-04-16T11:50:26.376Z,8.68
2023-04-16T11:52:54.727Z,8.64
2023-04-16T11:55:21.976Z,8.70
2023-04-16T11:57:49.271Z,8.59
2023-04-16T12:00:19.188Z,8.55
2023-04-16T12:02:53.637Z,8.66
2023-04-16T12:05:31.118Z,8.71
2023-04-16T12:08:00.997Z,8.73
2023-04-16T12:10:28.419Z,8.72
2023-04-16T12:13:10.036Z,8.76
2023-04-16T12:15:53.902Z,8.81
2023-04-16T12:18:23.102Z,8.81
2023-04-16T12:20:53.302Z,8.90
2023-04-16T12:23:33.962Z,8.92
2023-04-16T12:26:10.581Z,8.89
2023-04-16T12:28:38.619Z,8.98
2023-04-16T12:31:05.978Z,9.07
2023-04-16T12:33:33.005Z,9.01
2023-04-16T12:35:59.840Z,9.01
2023-04-16T12:38:27.253Z,9.03
2023-04-16T12:40:57.010Z,9.09
2023-04-16T12:43:24.178Z,9.04
2023-04-16T12:45:51.100Z,8.87
2023-04-16T12:48:17.782Z,8.96
2023-04-16T12:50:44.632Z,8.93
2023-04-16T12:53:12.049Z,9.00
2023-04-16T12:55:39.347Z,9.03
2023-04-16T12:58:06.654Z,9.03
2023-04-16T13:00:33.281Z,9.02
2023-04-16T13:03:00.133Z,9.06
2023-04-16T13:05:27.235Z,8.95
2023-04-16T13:07:54.132Z,9.00
2023-04-16T13:10:22.240Z,9.02
2023-04-16T13:12:49.159Z,8.97
2023-04-16T13:15:15.895Z,8.95
2023-04-16T13:17:42.572Z,8.98
2023-04-16T13:20:10.003Z,8.98
2023-04-16T13:22:36.874Z,8.92
2023-04-16T13:25:03.889Z,8.80
2023-04-16T13:27:32.198Z,8.88
2023-04-16T13:29:58.961Z,8.97
2023-04-16T13:32:25.777Z,9.02
2023-04-16T13:34:52.463Z,9.08
2023-04-16T13:37:19.034Z,9.08
2023-04-16T13:39:45.742Z,9.05
2023-04-16T13:42:12.387Z,9.03
2023-04-16T13:44:39.040Z,8.95
2023-04-16T13:47:05.743Z,8.95
2023-04-16T13:49:35.591Z,8.89
2023-04-16T13:52:02.650Z,8.89
2023-04-16T13:54:29.332Z,8.85
2023-04-16T13:56:56.053Z,8.85
2023-04-16T13:59:22.864Z,8.82
2023-04-16T14:01:49.608Z,8.88
2023-04-16T14:04:16.441Z,8.89
2023-04-16T14:06:43.279Z,8.85
2023-04-16T14:09:11.004Z,8.84
2023-04-16T14:11:37.893Z,8.85
2023-04-16T14:14:05.001Z,8.82
2023-04-16T14:16:31.781Z,8.86
2023-04-16T14:18:58.410Z,8.89
2023-04-16T14:21:25.171Z,8.92
2023-04-16T14:23:51.772Z,8.85
2023-04-16T14:26:18.475Z,8.88
2023-04-16T14:28:45.164Z,8.78
2023-04-16T14:31:11.805Z,8.73
2023-04-16T14:33:38.440Z,8.71
2023-04-16T14:36:05.802Z,8.77
2023-04-16T14:38:32.577Z,8.78
2023-04-16T14:41:00.541Z,8.77
2023-04-16T14:43:27.545Z,8.82
2023-04-16T14:45:54.437Z,8.80
2023-04-16T14:48:22.082Z,8.74
2023-04-16T14:50:48.926Z,8.64
2023-04-16T14:53:15.951Z,8.71
2023-04-16T14:55:42.664Z,8.70
2023-04-16T14:58:10.830Z,8.67
2023-04-16T15:00:37.702Z,8.72
2023-04-16T15:03:05.142Z,8.77
2023-04-16T15:05:32.065Z,8.78
2023-04-16T15:07:58.744Z,8.77
2023-04-16T15:10:25.407Z,8.76
2023-04-16T15:12:52.118Z,8.78
2023-04-16T15:15:18.829Z,8.76
2023-04-16T15:17:45.747Z,8.79
2023-04-16T15:20:12.949Z,8.85
2023-04-16T15:22:40.214Z,8.92
2023-04-16T15:25:07.403Z,9.03
2023-04-16T15:27:34.007Z,9.05
2023-04-16T15:30:00.693Z,9.01
2023-04-16T15:32:27.385Z,9.04
2023-04-16T15:34:54.113Z,9.08
2023-04-16T15:37:20.845Z,9.05
2023-04-16T15:39:47.514Z,9.05
2023-04-16T15:42:16.715Z,9.07
2023-04-16T15:44:43.625Z,9.09
2023-04-16T15:47:10.374Z,9.02
2023-04-16T15:49:37.145Z,8.96
2023-04-16T15:52:04.069Z,9.03
2023-04-16T15:54:31.842Z,8.96
2023-04-16T15:56:59.071Z,8.97
2023-04-16T15:59:29.141Z,8.98
2023-04-16T16:01:55.876Z,9.00
2023-04-16T16:04:23.192Z,8.94
2023-04-16T16:06:50.492Z,8.89
2023-04-16T16:09:17.401Z,8.93
2023-04-16T16:11:44.325Z,8.98
2023-04-16T16:14:11.037Z,8.92
2023-04-16T16:16:37.893Z,8.80
2023-04-16T16:19:04.680Z,8.87
2023-04-16T16:21:32.727Z,8.93
2023-04-16T16:23:59.396Z,8.95
2023-04-16T16:26:26.068Z,8.99
2023-04-16T16:28:52.720Z,9.01
2023-04-16T16:31:19.521Z,8.90
2023-04-16T16:33:46.219Z,8.90
2023-04-16T16:36:13.093Z,8.92
2023-04-16T16:38:40.809Z,8.94
2023-04-16T16:41:07.604Z,8.92
2023-04-16T16:43:36.719Z,8.89
2023-04-16T16:46:03.601Z,8.87
2023-04-16T16:48:30.319Z,8.94
2023-04-16T16:50:56.918Z,8.98
2023-04-16T16:53:23.609Z,8.93
2023-04-16T16:55:50.243Z,8.98
2023-04-16T16:58:17.119Z,8.99
2023-04-16T17:00:43.900Z,9.01
2023-04-16T17:03:10.852Z,9.05
2023-04-16T17:05:37.733Z,9.04
2023-04-16T17:08:04.518Z,9.08
2023-04-16T17:10:31.369Z,9.08
2023-04-16T17:12:58.012Z,8.95
2023-04-16T17:15:24.710Z,9.01
2023-04-16T17:17:51.485Z,8.92
2023-04-16T17:20:18.324Z,8.86
2023-04-16T17:22:44.979Z,8.76
2023-04-16T17:25:11.942Z,8.82
2023-04-16T17:27:41.438Z,8.77
2023-04-16T17:30:08.638Z,8.80
2023-04-16T17:32:35.872Z,8.80
2023-04-16T17:35:04.329Z,8.80
2023-04-16T17:37:31.231Z,8.73
2023-04-16T17:39:57.903Z,8.79
2023-04-16T17:42:24.916Z,8.80
2023-04-16T17:44:51.913Z,8.81
2023-04-16T17:47:18.563Z,8.83
2023-04-16T17:49:45.485Z,8.85
2023-04-16T17:52:13.060Z,8.82
2023-04-16T17:54:39.638Z,8.79
2023-04-16T17:57:06.285Z,8.73
2023-04-16T17:59:33.192Z,8.69
2023-04-16T18:01:59.985Z,8.73
2023-04-16T18:04:26.736Z,8.76
2023-04-16T18:06:53.494Z,8.80
2023-04-16T18:09:20.164Z,8.80
2023-04-16T18:11:47.045Z,8.78
2023-04-16T18:14:16.947Z,8.79
2023-04-16T18:16:43.741Z,8.70
2023-04-16T18:19:10.425Z,8.66
2023-04-16T18:21:37.040Z,8.67
2023-04-16T18:24:03.823Z,8.62
2023-04-16T18:26:31.168Z,8.63
2023-04-16T18:29:00.392Z,8.53
2023-04-16T18:31:27.185Z,8.50
2023-04-16T18:33:57.892Z,8.54
2023-04-16T18:36:26.873Z,8.50
2023-04-16T18:39:01.804Z,8.48
2023-04-16T18:41:29.663Z,8.51
2023-04-16T18:43:56.402Z,8.44
2023-04-16T18:46:23.183Z,8.46
2023-04-16T18:48:49.872Z,8.49
2023-04-16T18:51:16.831Z,8.48
2023-04-16T18:53:45.613Z,8.47
2023-04-16T18:56:12.611Z,8.51
2023-04-16T18:58:39.290Z,8.55
2023-04-16T19:01:11.253Z,8.58
2023-04-16T19:03:38.430Z,8.59
2023-04-16T19:06:06.233Z,8.60
2023-04-16T19:08:33.112Z,8.62
2023-04-16T19:10:59.724Z,8.63
2023-04-16T19:13:26.502Z,8.63
2023-04-16T19:15:58.585Z,8.62
2023-04-16T19:18:25.569Z,8.59
2023-04-16T19:20:52.207Z,8.59
2023-04-16T19:23:19.231Z,8.54
2023-04-16T19:25:46.534Z,8.49
2023-04-16T19:28:13.122Z,8.51
2023-04-16T19:30:40.357Z,8.46
2023-04-16T19:33:07.120Z,8.44
2023-04-16T19:35:34.712Z,8.40
2023-04-16T19:38:01.325Z,8.39
2023-04-16T19:40:27.954Z,8.40
2023-04-16T19:42:55.044Z,8.41
2023-04-16T19:45:25.757Z,8.41
2023-04-16T19:47:52.529Z,8.38
2023-04-16T19:50:19.649Z,8.37
2023-04-16T19:52:46.324Z,8.36
2023-04-16T19:55:13.035Z,8.38
2023-04-16T19:57:39.645Z,8.39
2023-04-16T20:00:11.116Z,8.40
2023-04-16T20:02:38.273Z,8.38
2023-04-16T20:05:05.417Z,8.34
2023-04-16T20:07:32.061Z,8.33
2023-04-16T20:09:58.768Z,8.32
2023-04-16T20:12:25.387Z,8.26
2023-04-16T20:14:52.025Z,8.22
2023-04-16T20:17:19.722Z,8.23
2023-04-16T20:19:49.584Z,8.27
2023-04-16T20:22:18.239Z,8.30
2023-04-16T20:24:47.895Z,8.31
2023-04-16T20:27:15.422Z,8.33
2023-04-16T20:29:42.201Z,8.35
2023-04-16T20:32:08.947Z,8.33
2023-04-16T20:34:36.734Z,8.33
2023-04-16T20:37:06.208Z,8.32
2023-04-16T20:39:40.074Z,8.26
2023-04-16T20:42:10.077Z,8.22
2023-04-16T20:44:42.474Z,8.20
2023-04-16T20:47:09.717Z,8.23
2023-04-16T20:49:36.342Z,8.19
2023-04-16T20:52:03.036Z,8.19
2023-04-16T20:54:30.450Z,8.20
2023-04-16T20:56:57.733Z,8.20
2023-04-16T20:59:25.075Z,8.21
2023-04-16T21:01:54.955Z,8.20
2023-04-16T21:04:21.803Z,8.17
2023-04-16T21:06:49.133Z,8.18
2023-04-16T21:09:16.557Z,8.18
2023-04-16T21:11:43.116Z,8.18
2023-04-16T21:14:09.734Z,8.18
2023-04-16T21:16:36.431Z,8.18
2023-04-16T21:19:03.423Z,8.16
2023-04-16T21:21:30.277Z,8.13
2023-04-16T21:23:56.892Z,8.14
2023-04-16T21:26:23.579Z,8.13
2023-04-16T21:28:50.415Z,8.12
2023-04-16T21:31:17.218Z,8.13
2023-04-16T21:33:44.015Z,8.17
2023-04-16T21:36:11.573Z,8.16
2023-04-16T21:38:38.289Z,8.16
2023-04-16T21:41:04.863Z,8.17
2023-04-16T21:43:32.259Z,8.19
2023-04-16T21:45:59.703Z,8.18
2023-04-16T21:48:27.087Z,8.19
2023-04-16T21:50:58.336Z,8.18
2023-04-16T21:53:25.970Z,8.19
2023-04-16T21:55:52.595Z,8.19
2023-04-16T21:58:19.282Z,8.19
2023-04-16T22:00:47.179Z,8.24
2023-04-16T22:03:14.434Z,8.21
2023-04-16T22:05:41.150Z,8.20
2023-04-16T22:08:23.236Z,8.18
2023-04-16T22:10:51.327Z,8.17
2023-04-16T22:13:18.310Z,8.17
2023-04-16T22:15:44.882Z,8.22
2023-04-16T22:18:11.774Z,8.22
2023-04-16T22:20:39.303Z,8.19
2023-04-16T22:23:08.995Z,8.18
2023-04-16T22:25:35.853Z,8.16
2023-04-16T22:28:02.536Z,8.16
2023-04-16T22:30:29.221Z,8.15
2023-04-16T22:32:56.025Z,8.16
2023-04-16T22:35:22.666Z,8.14
2023-04-16T22:37:49.290Z,8.14
2023-04-16T22:40:16.719Z,8.10
2023-04-16T22:42:43.378Z,8.09
2023-04-16T22:45:10.470Z,8.10
2023-04-16T22:47:37.173Z,8.08
2023-04-16T22:50:04.010Z,8.08
2023-04-16T22:52:30.606Z,8.08
2023-04-16T22:54:57.289Z,8.10
2023-04-16T22:57:26.887Z,8.11
2023-04-16T22:59:53.577Z,8.11
2023-04-16T23:02:21.472Z,8.13
2023-04-16T23:04:48.187Z,8.10
2023-04-16T23:07:15.658Z,8.10
2023-04-16T23:09:42.501Z,8.11
2023-04-16T23:12:09.106Z,8.10
2023-04-16T23:14:36.973Z,8.08
2023-04-16T23:17:03.878Z,8.07
2023-04-16T23:19:31.790Z,8.08
2023-04-16T23:21:58.721Z,8.09
2023-04-16T23:24:25.462Z,8.08
2023-04-16T23:26:52.764Z,8.12
2023-04-16T23:29:20.654Z,8.13
2023-04-16T23:31:47.441Z,8.12
2023-04-16T23:34:14.233Z,8.10
2023-04-16T23:36:40.916Z,8.10
2023-04-16T23:39:07.561Z,8.10
2023-04-16T23:41:34.625Z,8.08
2023-04-16T23:44:01.227Z,8.08
2023-04-16T23:46:27.847Z,8.08
2023-04-16T23:48:55.418Z,8.12
2023-04-16T23:51:22.314Z,8.07
2023-04-16T23:53:48.974Z,8.05
2023-04-16T23:56:16.336Z,8.07
2023-04-16T23:58:42.989Z,8.13
